createdAt,value
2022-09-13T00:00:56.616Z,5.33
2022-09-13T00:03:27.025Z,6.20
2022-09-13T00:05:57.099Z,5.80
2022-09-13T00:08:27.349Z,6.00
2022-09-13T00:10:57.353Z,5.53
2022-09-13T00:13:29.981Z,5.67
2022-09-13T00:16:01.278Z,5.67
2022-09-13T00:18:31.353Z,5.83
2022-09-13T00:21:10.213Z,5.43
2022-09-13T00:23:41.533Z,5.97
2022-09-13T00:26:15.505Z,5.63
2022-09-13T00:28:51.611Z,5.90
2022-09-13T00:31:23.555Z,6.73
2022-09-13T00:33:54.297Z,7.80
2022-09-13T00:36:24.399Z,6.30
2022-09-13T00:38:54.402Z,6.90
2022-09-13T00:41:25.549Z,6.43
2022-09-13T00:44:01.451Z,5.83
2022-09-13T00:46:40.937Z,5.57
2022-09-13T00:49:20.196Z,5.70
2022-09-13T00:51:58.441Z,6.70
2022-09-13T00:54:43.950Z,6.13
2022-09-13T00:57:17.525Z,6.20
2022-09-13T01:00:04.941Z,7.43
2022-09-13T01:02:35.206Z,8.27
2022-09-13T01:05:06.147Z,5.50
2022-09-13T01:07:37.055Z,6.00
2022-09-13T01:10:10.641Z,7.40
2022-09-13T01:12:50.845Z,6.50
2022-09-13T01:15:24.330Z,5.50
2022-09-13T01:17:57.412Z,6.40
2022-09-13T01:20:54.821Z,6.40
2022-09-13T01:23:52.166Z,5.83
2022-09-13T01:27:04.288Z,6.50
2022-09-13T01:30:14.764Z,5.80
2022-09-13T01:33:23.406Z,6.53
2022-09-13T01:36:13.895Z,6.87
2022-09-13T01:39:00.386Z,6.90
2022-09-13T01:42:02.199Z,7.73
2022-09-13T01:44:56.205Z,6.37
2022-09-13T01:47:36.714Z,6.27
2022-09-13T01:50:20.032Z,7.30
2022-09-13T01:52:59.081Z,7.87
2022-09-13T01:55:38.753Z,6.27
2022-09-13T01:58:23.047Z,7.33
2022-09-13T02:01:06.262Z,6.93
2022-09-13T02:03:48.164Z,7.30
2022-09-13T02:06:25.975Z,7.33
2022-09-13T02:09:02.308Z,7.87
2022-09-13T02:11:33.614Z,6.47
2022-09-13T02:14:13.369Z,8.27
2022-09-13T02:16:52.446Z,7.40
2022-09-13T02:19:36.576Z,7.80
2022-09-13T02:22:11.067Z,6.30
2022-09-13T02:24:45.533Z,7.20
2022-09-13T02:27:23.328Z,6.57
2022-09-13T02:30:02.253Z,6.77
2022-09-13T02:32:40.424Z,7.07
2022-09-13T02:35:21.182Z,7.37
2022-09-13T02:38:00.754Z,8.50
2022-09-13T02:40:42.244Z,8.00
2022-09-13T02:43:18.245Z,7.60
2022-09-13T02:45:56.915Z,7.47
2022-09-13T02:48:39.246Z,7.60
2022-09-13T02:51:26.452Z,7.43
2022-09-13T02:54:08.526Z,6.70
2022-09-13T02:56:52.698Z,8.27
2022-09-13T02:59:26.531Z,6.93
2022-09-13T03:02:04.488Z,5.70
2022-09-13T03:04:36.872Z,6.50
2022-09-13T03:07:13.705Z,6.17
2022-09-13T03:09:51.508Z,5.70
2022-09-13T03:13:13.384Z,5.53
2022-09-13T03:16:02.978Z,6.20
2022-09-13T03:19:03.700Z,6.20
2022-09-13T03:22:01.858Z,6.47
2022-09-13T03:24:53.008Z,5.67
2022-09-13T03:27:37.503Z,5.50
2022-09-13T03:30:10.150Z,5.60
2022-09-13T03:32:51.837Z,5.87
2022-09-13T03:35:32.910Z,5.00
2022-09-13T03:38:10.976Z,6.50
2022-09-13T03:40:51.829Z,5.90
2022-09-13T03:43:30.661Z,6.07
2022-09-13T03:46:05.428Z,5.57
2022-09-13T03:48:39.290Z,5.10
2022-09-13T03:51:11.401Z,5.20
2022-09-13T03:53:49.550Z,6.67
2022-09-13T03:56:23.531Z,5.93
2022-09-13T03:58:54.071Z,5.83
2022-09-13T04:01:27.341Z,5.83
2022-09-13T04:03:57.418Z,5.50
2022-09-13T04:06:27.712Z,5.50
2022-09-13T04:08:59.258Z,6.10
2022-09-13T04:11:33.090Z,5.30
2022-09-13T04:14:03.562Z,5.10
2022-09-13T04:16:33.524Z,6.17
2022-09-13T04:19:03.654Z,6.07
2022-09-13T04:21:33.682Z,5.80
2022-09-13T04:24:03.626Z,7.03
2022-09-13T04:26:36.650Z,6.53
2022-09-13T04:29:06.668Z,6.83
2022-09-13T04:31:36.829Z,6.90
2022-09-13T04:34:07.431Z,6.40
2022-09-13T04:36:37.929Z,6.63
2022-09-13T04:39:08.116Z,6.27
2022-09-13T04:41:40.721Z,7.53
2022-09-13T04:44:10.799Z,6.83
2022-09-13T04:46:41.645Z,7.30
2022-09-13T04:49:13.913Z,6.50
2022-09-13T04:51:44.013Z,6.23
2022-09-13T04:54:16.110Z,5.40
2022-09-13T04:56:49.707Z,6.60
2022-09-13T04:59:19.773Z,7.23
2022-09-13T05:01:49.818Z,5.37
2022-09-13T05:04:20.055Z,6.07
2022-09-13T05:06:50.693Z,5.63
2022-09-13T05:09:21.048Z,6.30
2022-09-13T05:11:53.705Z,5.77
2022-09-13T05:14:23.681Z,6.00
2022-09-13T05:16:53.694Z,5.50
2022-09-13T05:19:23.668Z,5.97
2022-09-13T05:21:53.589Z,6.43
2022-09-13T05:24:23.642Z,6.17
2022-09-13T05:26:56.782Z,6.33
2022-09-13T05:29:26.825Z,5.10
2022-09-13T05:31:56.806Z,4.77
2022-09-13T05:34:26.825Z,5.27
2022-09-13T05:36:56.846Z,5.00
2022-09-13T05:39:36.042Z,5.57
2022-09-13T05:42:12.215Z,4.30
2022-09-13T05:44:42.204Z,5.40
2022-09-13T05:47:13.772Z,5.67
2022-09-13T05:50:03.416Z,4.97
2022-09-13T05:52:33.716Z,4.70
2022-09-13T05:55:03.804Z,4.90
2022-09-13T05:57:36.409Z,5.30
2022-09-13T06:00:08.733Z,4.70
2022-09-13T06:02:42.425Z,5.10
2022-09-13T06:05:13.129Z,4.60
2022-09-13T06:07:44.211Z,5.67
2022-09-13T06:10:14.822Z,4.80
2022-09-13T06:12:47.432Z,4.77
2022-09-13T06:15:17.591Z,5.40
2022-09-13T06:17:48.756Z,5.37
2022-09-13T06:20:18.915Z,5.30
2022-09-13T06:22:50.689Z,6.10
2022-09-13T06:25:20.701Z,5.63
2022-09-13T06:27:53.494Z,5.40
2022-09-13T06:30:23.687Z,6.10
2022-09-13T06:32:53.702Z,5.67
2022-09-13T06:35:23.716Z,5.20
2022-09-13T06:37:54.391Z,5.23
2022-09-13T06:40:25.446Z,4.50
2022-09-13T06:42:58.088Z,4.83
2022-09-13T06:45:28.159Z,4.90
2022-09-13T06:47:58.637Z,5.47
2022-09-13T06:50:28.673Z,4.90
2022-09-13T06:52:59.916Z,4.90
2022-09-13T06:55:29.889Z,5.57
2022-09-13T06:58:02.460Z,4.73
2022-09-13T07:00:32.508Z,5.67
2022-09-13T07:03:02.606Z,3.83
2022-09-13T07:05:32.611Z,4.67
2022-09-13T07:08:02.591Z,4.50
2022-09-13T07:10:32.606Z,5.73
2022-09-13T07:13:05.135Z,5.10
2022-09-13T07:15:35.150Z,4.87
2022-09-13T07:18:05.185Z,4.00
2022-09-13T07:20:35.215Z,4.70
2022-09-13T07:23:05.181Z,5.20
2022-09-13T07:25:35.248Z,4.00
2022-09-13T07:28:07.903Z,4.70
2022-09-13T07:30:37.913Z,4.63
2022-09-13T07:33:08.009Z,4.70
2022-09-13T07:35:37.975Z,4.97
2022-09-13T07:38:07.923Z,4.80
2022-09-13T07:40:38.118Z,4.60
2022-09-13T07:43:10.669Z,4.60
2022-09-13T07:45:40.617Z,4.40
2022-09-13T07:48:10.621Z,5.10
2022-09-13T07:50:40.943Z,4.37
2022-09-13T07:53:10.910Z,4.53
2022-09-13T07:55:40.862Z,4.27
2022-09-13T07:58:13.928Z,4.70
2022-09-13T08:00:44.037Z,4.37
2022-09-13T08:03:14.769Z,4.20
2022-09-13T08:05:45.183Z,4.50
2022-09-13T08:08:15.198Z,4.10
2022-09-13T08:10:49.283Z,4.10
2022-09-13T08:13:22.125Z,4.57
2022-09-13T08:15:52.462Z,4.70
2022-09-13T08:18:22.926Z,4.43
2022-09-13T08:20:52.970Z,4.67
2022-09-13T08:23:23.029Z,4.30
2022-09-13T08:25:53.150Z,4.40
2022-09-13T08:28:27.757Z,4.50
2022-09-13T08:30:57.936Z,4.87
2022-09-13T08:33:28.107Z,4.70
2022-09-13T08:35:58.677Z,5.27
2022-09-13T08:38:28.807Z,4.20
2022-09-13T08:41:02.232Z,5.27
2022-09-13T08:43:51.928Z,4.57
2022-09-13T08:46:30.016Z,4.63
2022-09-13T08:49:16.008Z,3.67
2022-09-13T08:51:52.126Z,3.83
2022-09-13T08:54:23.047Z,3.63
2022-09-13T08:57:04.522Z,3.60
2022-09-13T08:59:57.857Z,4.33
2022-09-13T09:02:55.321Z,4.23
2022-09-13T09:05:27.827Z,3.60
2022-09-13T09:08:03.962Z,3.50
2022-09-13T09:10:41.252Z,3.27
2022-09-13T09:13:24.519Z,3.03
2022-09-13T09:16:03.012Z,4.37
2022-09-13T09:18:40.260Z,3.67
2022-09-13T09:21:19.150Z,3.80
2022-09-13T09:23:54.533Z,4.00
2022-09-13T09:26:29.243Z,3.90
2022-09-13T09:29:04.077Z,3.90
2022-09-13T09:31:51.212Z,4.27
2022-09-13T09:34:42.738Z,4.33
2022-09-13T09:37:24.618Z,4.30
2022-09-13T09:39:58.380Z,3.33
2022-09-13T09:42:32.918Z,4.30
2022-09-13T09:45:09.120Z,4.27
2022-09-13T09:47:50.507Z,4.13
2022-09-13T09:50:24.587Z,3.57
2022-09-13T09:53:00.396Z,3.67
2022-09-13T09:55:33.696Z,3.77
2022-09-13T09:58:06.402Z,4.40
2022-09-13T10:00:39.846Z,4.10
2022-09-13T10:03:22.485Z,3.60
2022-09-13T10:05:52.896Z,4.30
2022-09-13T10:08:33.820Z,3.10
2022-09-13T10:11:04.757Z,3.90
2022-09-13T10:13:36.826Z,3.67
2022-09-13T10:16:09.577Z,4.03
2022-09-13T10:18:44.773Z,4.43
2022-09-13T10:21:30.036Z,5.23
2022-09-13T10:24:24.276Z,5.10
2022-09-13T10:26:54.270Z,5.67
2022-09-13T10:29:25.003Z,5.83
2022-09-13T10:31:57.969Z,5.53
2022-09-13T10:34:36.060Z,5.80
2022-09-13T10:37:17.397Z,4.50
2022-09-13T10:40:08.043Z,4.47
2022-09-13T10:42:39.679Z,6.50
2022-09-13T10:45:22.398Z,5.10
2022-09-13T10:47:57.266Z,4.43
2022-09-13T10:50:33.457Z,4.07
2022-09-13T10:53:05.680Z,3.73
2022-09-13T10:55:44.019Z,3.37
2022-09-13T10:58:23.133Z,3.50
2022-09-13T11:01:35.886Z,3.27
2022-09-13T11:04:51.523Z,2.30
2022-09-13T11:07:59.137Z,2.87
2022-09-13T11:10:39.698Z,2.20
2022-09-13T11:13:25.444Z,2.87
2022-09-13T11:16:07.120Z,1.70
2022-09-13T11:19:01.486Z,2.43
2022-09-13T11:21:51.031Z,2.53
2022-09-13T11:24:41.829Z,2.50
2022-09-13T11:27:25.324Z,1.90
2022-09-13T11:30:14.346Z,2.27
2022-09-13T11:33:12.666Z,2.67
2022-09-13T11:36:27.917Z,1.97
2022-09-13T11:39:16.501Z,2.13
2022-09-13T11:42:06.037Z,2.00
2022-09-13T11:45:07.784Z,2.03
2022-09-13T11:47:58.817Z,2.43
2022-09-13T11:50:40.036Z,2.00
2022-09-13T11:53:50.402Z,2.30
2022-09-13T11:56:28.851Z,1.90
2022-09-13T11:59:17.928Z,2.17
2022-09-13T12:01:52.959Z,1.83
2022-09-13T12:04:33.668Z,2.70
2022-09-13T12:07:10.431Z,2.17
2022-09-13T12:09:54.735Z,2.10
2022-09-13T12:12:31.617Z,2.37
2022-09-13T12:15:11.215Z,1.70
2022-09-13T12:17:48.313Z,1.77
2022-09-13T12:20:33.175Z,1.73
2022-09-13T12:23:09.010Z,1.73
2022-09-13T12:25:52.217Z,1.60
2022-09-13T12:28:29.627Z,1.50
2022-09-13T12:31:09.857Z,1.90
2022-09-13T12:33:43.835Z,1.90
2022-09-13T12:37:03.429Z,1.70
2022-09-13T12:40:12.405Z,1.80
2022-09-13T12:43:16.924Z,1.90
2022-09-13T12:46:29.620Z,1.97
2022-09-13T12:49:22.804Z,1.30
2022-09-13T12:52:20.126Z,1.87
2022-09-13T12:55:45.367Z,1.87
2022-09-13T12:58:37.669Z,1.70
2022-09-13T13:01:18.257Z,1.57
2022-09-13T13:04:00.865Z,1.50
2022-09-13T13:06:37.412Z,1.53
2022-09-13T13:09:28.693Z,1.70
2022-09-13T13:12:01.105Z,1.20
2022-09-13T13:14:46.971Z,1.20
2022-09-13T13:17:46.816Z,1.30
2022-09-13T13:21:22.685Z,1.10
2022-09-13T13:24:51.069Z,1.40
2022-09-13T13:27:48.056Z,1.20
2022-09-13T13:30:56.470Z,1.33
2022-09-13T13:33:32.073Z,1.20
2022-09-13T13:36:25.795Z,1.33
2022-09-13T13:38:59.927Z,1.30
2022-09-13T13:41:52.163Z,1.10
2022-09-13T13:45:00.099Z,1.10
2022-09-13T13:48:20.673Z,1.20
2022-09-13T13:51:22.257Z,1.07
2022-09-13T13:54:05.932Z,1.30
2022-09-13T13:56:49.974Z,1.27
2022-09-13T13:59:28.528Z,1.23
2022-09-13T14:02:02.215Z,1.33
2022-09-13T14:05:04.953Z,1.03
2022-09-13T14:08:33.773Z,1.10
2022-09-13T14:11:26.183Z,1.40
2022-09-13T14:14:16.334Z,1.40
2022-09-13T14:17:05.046Z,1.40
2022-09-13T14:19:37.481Z,1.10
2022-09-13T14:22:18.615Z,1.40
2022-09-13T14:24:51.281Z,1.70
2022-09-13T14:27:27.197Z,1.60
2022-09-13T14:30:03.216Z,1.30
2022-09-13T14:32:42.657Z,1.20
2022-09-13T14:35:30.685Z,1.60
2022-09-13T14:38:15.537Z,1.20
2022-09-13T14:40:50.740Z,1.40
2022-09-13T14:43:26.042Z,1.90
2022-09-13T14:46:05.993Z,1.50
2022-09-13T14:48:43.630Z,1.40
2022-09-13T14:51:24.952Z,2.00
2022-09-13T14:54:00.973Z,1.43
2022-09-13T14:56:39.568Z,1.57
2022-09-13T14:59:25.426Z,1.40
2022-09-13T15:01:59.685Z,1.87
2022-09-13T15:04:33.211Z,1.57
2022-09-13T15:07:12.832Z,1.47
2022-09-13T15:09:42.846Z,1.70
2022-09-13T15:12:28.246Z,1.80
2022-09-13T15:15:40.457Z,1.73
2022-09-13T15:18:28.054Z,1.70
2022-09-13T15:21:02.048Z,1.80
2022-09-13T15:23:35.927Z,2.30
2022-09-13T15:26:11.975Z,1.77
2022-09-13T15:28:56.089Z,1.67
2022-09-13T15:31:33.214Z,1.60
2022-09-13T15:34:27.687Z,2.07
2022-09-13T15:37:13.093Z,1.57
2022-09-13T15:39:49.749Z,1.77
2022-09-13T15:42:20.526Z,1.83
2022-09-13T15:44:50.492Z,1.93
2022-09-13T15:47:23.071Z,2.27
2022-09-13T15:49:55.121Z,1.90
2022-09-13T15:52:25.201Z,1.83
2022-09-13T15:54:55.244Z,1.43
2022-09-13T15:57:27.794Z,2.10
2022-09-13T16:00:04.061Z,1.50
2022-09-13T16:02:42.169Z,1.50
2022-09-13T16:05:12.351Z,1.63
2022-09-13T16:07:43.751Z,1.70
2022-09-13T16:10:22.338Z,3.53
2022-09-13T16:12:52.792Z,2.40
2022-09-13T16:15:23.031Z,3.10
2022-09-13T16:17:55.609Z,1.63
2022-09-13T16:20:26.296Z,2.20
2022-09-13T16:22:56.405Z,4.67
2022-09-13T16:25:26.588Z,2.03
2022-09-13T16:27:56.588Z,2.40
2022-09-13T16:30:27.932Z,1.97
2022-09-13T16:33:01.123Z,3.10
2022-09-13T16:35:34.915Z,2.00
2022-09-13T16:38:05.002Z,2.17
2022-09-13T16:40:35.412Z,3.37
2022-09-13T16:43:05.656Z,2.13
2022-09-13T16:45:36.003Z,2.13
2022-09-13T16:48:08.762Z,2.03
2022-09-13T16:50:42.807Z,1.70
2022-09-13T16:53:12.985Z,2.37
2022-09-13T16:55:43.056Z,2.10
2022-09-13T16:58:13.027Z,1.73
2022-09-13T17:00:43.036Z,2.27
2022-09-13T17:03:15.630Z,2.60
2022-09-13T17:05:45.636Z,2.20
2022-09-13T17:08:15.589Z,2.60
2022-09-13T17:10:45.633Z,2.73
2022-09-13T17:13:17.154Z,2.20
2022-09-13T17:15:47.927Z,2.80
2022-09-13T17:18:21.349Z,2.90
2022-09-13T17:20:55.725Z,3.20
2022-09-13T17:23:25.795Z,3.00
2022-09-13T17:25:56.052Z,3.70
2022-09-13T17:28:26.045Z,3.03
2022-09-13T17:30:59.466Z,2.57
2022-09-13T17:33:34.824Z,2.63
2022-09-13T17:36:08.417Z,3.10
2022-09-13T17:38:39.468Z,3.13
2022-09-13T17:41:12.876Z,3.90
2022-09-13T17:43:45.336Z,3.40
2022-09-13T17:46:18.105Z,3.27
2022-09-13T17:48:52.203Z,3.13
2022-09-13T17:51:25.566Z,2.63
2022-09-13T17:53:58.813Z,3.50
2022-09-13T17:56:33.502Z,2.80
2022-09-13T17:59:10.420Z,3.00
2022-09-13T18:01:44.197Z,2.03
2022-09-13T18:04:19.349Z,2.20
2022-09-13T18:06:49.849Z,2.50
2022-09-13T18:09:19.900Z,2.67
2022-09-13T18:11:50.105Z,3.07
2022-09-13T18:14:23.987Z,3.20
2022-09-13T18:16:55.872Z,3.37
2022-09-13T18:19:45.387Z,2.87
2022-09-13T18:22:16.767Z,3.03
2022-09-13T18:24:46.941Z,2.83
2022-09-13T18:27:16.916Z,3.10
2022-09-13T18:29:46.901Z,3.13
2022-09-13T18:32:16.953Z,2.67
2022-09-13T18:34:49.448Z,3.23
2022-09-13T18:37:19.562Z,3.00
2022-09-13T18:39:49.889Z,2.70
2022-09-13T18:42:19.956Z,2.60
2022-09-13T18:44:50.937Z,3.43
2022-09-13T18:47:22.059Z,3.10
2022-09-13T18:49:54.604Z,2.83
2022-09-13T18:52:25.045Z,3.10
2022-09-13T18:54:55.016Z,2.53
2022-09-13T18:57:25.044Z,4.07
2022-09-13T18:59:55.057Z,2.60
2022-09-13T19:02:25.100Z,4.13
2022-09-13T19:04:57.796Z,5.70
2022-09-13T19:07:27.773Z,3.07
2022-09-13T19:09:57.991Z,2.93
2022-09-13T19:12:27.984Z,3.57
2022-09-13T19:14:57.985Z,2.60
2022-09-13T19:17:27.912Z,2.67
2022-09-13T19:20:00.523Z,2.73
2022-09-13T19:22:30.662Z,2.70
2022-09-13T19:25:00.699Z,2.27
2022-09-13T19:27:32.869Z,2.90
2022-09-13T19:30:02.917Z,2.70
2022-09-13T19:32:32.897Z,3.50
2022-09-13T19:35:05.647Z,2.67
2022-09-13T19:37:35.832Z,2.80
2022-09-13T19:40:06.780Z,2.50
2022-09-13T19:42:36.888Z,2.80
2022-09-13T19:45:07.902Z,3.00
2022-09-13T19:48:34.629Z,2.93
2022-09-13T19:50:30.851Z,3.40
2022-09-13T19:53:00.876Z,2.97
2022-09-13T19:55:33.129Z,3.20
2022-09-13T19:58:03.107Z,3.30
2022-09-13T20:00:34.048Z,2.83
2022-09-13T20:03:04.923Z,2.57
2022-09-13T20:05:39.473Z,2.70
2022-09-13T20:08:09.771Z,3.00
2022-09-13T20:10:41.313Z,2.90
2022-09-13T20:13:11.391Z,3.13
2022-09-13T20:15:42.013Z,2.57
2022-09-13T20:18:15.617Z,3.70
2022-09-13T20:20:50.259Z,3.70
2022-09-13T20:23:20.642Z,3.33
2022-09-13T20:25:50.600Z,4.70
2022-09-13T20:28:20.626Z,3.63
2022-09-13T20:30:56.831Z,4.13
2022-09-13T20:33:28.494Z,3.90
2022-09-13T20:36:05.976Z,4.00
2022-09-13T20:38:37.547Z,3.40
2022-09-13T20:41:08.931Z,4.00
2022-09-13T20:43:40.176Z,3.53
2022-09-13T20:46:13.558Z,3.80
2022-09-13T20:48:44.555Z,4.13
2022-09-13T20:51:20.232Z,3.50
2022-09-13T20:53:56.022Z,3.30
2022-09-13T20:56:26.799Z,3.10
2022-09-13T20:59:00.551Z,3.30
2022-09-13T21:01:33.105Z,2.50
2022-09-13T21:04:04.674Z,3.43
2022-09-13T21:07:03.324Z,3.27
2022-09-13T21:09:32.792Z,3.33
2022-09-13T21:12:03.532Z,3.10
2022-09-13T21:14:34.088Z,3.03
2022-09-13T21:17:06.707Z,3.20
2022-09-13T21:19:37.078Z,3.90
2022-09-13T21:22:10.332Z,3.00
2022-09-13T21:24:40.433Z,3.60
2022-09-13T21:27:12.095Z,2.80
2022-09-13T21:29:42.372Z,3.60
2022-09-13T21:32:12.708Z,3.37
2022-09-13T21:34:43.352Z,2.83
2022-09-13T21:37:16.243Z,3.33
2022-09-13T21:39:46.454Z,4.07
2022-09-13T21:42:17.120Z,3.13
2022-09-13T21:44:47.147Z,3.17
2022-09-13T21:47:17.147Z,2.87
2022-09-13T21:49:47.240Z,2.97
2022-09-13T21:52:19.924Z,3.33
2022-09-13T21:54:49.941Z,3.40
2022-09-13T21:57:20.803Z,3.57
2022-09-13T21:59:51.623Z,2.60
2022-09-13T22:02:21.704Z,2.83
2022-09-13T22:04:51.977Z,3.70
2022-09-13T22:07:24.566Z,3.10
2022-09-13T22:09:55.662Z,3.70
2022-09-13T22:12:25.799Z,3.50
2022-09-13T22:14:55.748Z,3.10
2022-09-13T22:17:26.298Z,3.03
2022-09-13T22:19:56.221Z,3.33
2022-09-13T22:22:29.293Z,2.57
2022-09-13T22:24:59.332Z,2.70
2022-09-13T22:27:29.764Z,2.97
2022-09-13T22:29:59.700Z,2.70
2022-09-13T22:32:30.765Z,3.50
2022-09-13T22:35:00.919Z,3.00
2022-09-13T22:37:33.553Z,2.87
2022-09-13T22:40:04.496Z,3.07
2022-09-13T22:42:34.642Z,3.57
2022-09-13T22:45:04.642Z,2.90
2022-09-13T22:47:34.575Z,3.40
2022-09-13T22:50:04.582Z,3.03
2022-09-13T22:52:37.416Z,3.20
2022-09-13T22:55:08.860Z,3.30
2022-09-13T22:57:38.935Z,3.00
2022-09-13T23:00:11.660Z,2.60
2022-09-13T23:02:46.491Z,2.90
2022-09-13T23:05:18.291Z,3.20
2022-09-13T23:07:51.230Z,3.30
2022-09-13T23:10:21.292Z,2.80
2022-09-13T23:12:51.193Z,3.43
2022-09-13T23:15:21.599Z,3.70
2022-09-13T23:17:51.866Z,3.70
2022-09-13T23:20:22.782Z,3.50
2022-09-13T23:22:55.265Z,3.47
2022-09-13T23:25:25.655Z,3.17
2022-09-13T23:27:55.581Z,3.23
2022-09-13T23:30:25.785Z,3.93
2022-09-13T23:32:55.766Z,3.20
2022-09-13T23:35:26.099Z,3.47
2022-09-13T23:37:58.920Z,3.10
2022-09-13T23:40:28.958Z,3.50
2022-09-13T23:42:59.162Z,3.30
2022-09-13T23:45:29.360Z,3.33
2022-09-13T23:47:59.429Z,3.40
2022-09-13T23:50:29.404Z,3.23
2022-09-13T23:53:02.101Z,3.37
2022-09-13T23:55:32.141Z,3.40
2022-09-13T23:58:02.103Z,4.00
